sensor_id;sensor_type;location;lat;lon;timestamp;P1;durP1;ratioP1;P2;durP2;ratioP2
75537;SDS011;64121;48.666;8.114;2023-03-04T00:01:56;25.10;;;13.55;;
75537;SDS011;64121;48.666;8.114;2023-03-04T00:04:21;22.92;;;13.23;;
75537;SDS011;64121;48.666;8.114;2023-03-04T00:06:48;24.50;;;13.65;;
75537;SDS011;64121;48.666;8.114;2023-03-04T00:09:13;25.98;;;14.05;;
75537;SDS011;64121;48.666;8.114;2023-03-04T00:11:39;25.15;;;14.65;;
75537;SDS011;64121;48.666;8.114;2023-03-04T00:14:04;23.75;;;13.23;;
75537;SDS011;64121;48.666;8.114;2023-03-04T00:16:29;28.13;;;14.52;;
75537;SDS011;64121;48.666;8.114;2023-03-04T00:18:55;23.08;;;13.27;;
75537;SDS011;64121;48.666;8.114;2023-03-04T00:21:21;25.70;;;13.82;;
75537;SDS011;64121;48.666;8.114;2023-03-04T00:23:48;23.25;;;13.32;;
75537;SDS011;64121;48.666;8.114;2023-03-04T00:26:14;23.23;;;13.45;;
75537;SDS011;64121;48.666;8.114;2023-03-04T00:28:39;22.75;;;13.75;;
75537;SDS011;64121;48.666;8.114;2023-03-04T00:31:04;26.52;;;13.73;;
75537;SDS011;64121;48.666;8.114;2023-03-04T00:33:30;22.50;;;13.70;;
75537;SDS011;64121;48.666;8.114;2023-03-04T00:35:55;24.63;;;13.55;;
75537;SDS011;64121;48.666;8.114;2023-03-04T00:38:20;22.23;;;13.15;;
75537;SDS011;64121;48.666;8.114;2023-03-04T00:40:47;24.42;;;12.43;;
75537;SDS011;64121;48.666;8.114;2023-03-04T00:43:12;24.42;;;13.18;;
75537;SDS011;64121;48.666;8.114;2023-03-04T00:45:38;23.60;;;12.65;;
75537;SDS011;64121;48.666;8.114;2023-03-04T00:48:03;25.35;;;13.63;;
75537;SDS011;64121;48.666;8.114;2023-03-04T00:50:29;24.55;;;13.00;;
75537;SDS011;64121;48.666;8.114;2023-03-04T00:52:54;23.92;;;13.57;;
75537;SDS011;64121;48.666;8.114;2023-03-04T00:55:20;23.05;;;13.10;;
75537;SDS011;64121;48.666;8.114;2023-03-04T00:57:46;21.10;;;12.88;;
75537;SDS011;64121;48.666;8.114;2023-03-04T01:00:12;27.92;;;13.90;;
75537;SDS011;64121;48.666;8.114;2023-03-04T01:02:38;22.83;;;13.57;;
75537;SDS011;64121;48.666;8.114;2023-03-04T01:05:04;21.65;;;12.07;;
75537;SDS011;64121;48.666;8.114;2023-03-04T01:07:30;25.30;;;12.75;;
75537;SDS011;64121;48.666;8.114;2023-03-04T01:09:56;19.38;;;11.57;;
75537;SDS011;64121;48.666;8.114;2023-03-04T01:12:21;20.83;;;12.60;;
75537;SDS011;64121;48.666;8.114;2023-03-04T01:14:48;23.85;;;13.13;;
75537;SDS011;64121;48.666;8.114;2023-03-04T01:17:13;22.40;;;12.50;;
75537;SDS011;64121;48.666;8.114;2023-03-04T01:19:38;24.42;;;12.40;;
75537;SDS011;64121;48.666;8.114;2023-03-04T01:22:04;20.65;;;11.80;;
75537;SDS011;64121;48.666;8.114;2023-03-04T01:24:29;22.13;;;12.13;;
75537;SDS011;64121;48.666;8.114;2023-03-04T01:26:55;23.92;;;12.98;;
75537;SDS011;64121;48.666;8.114;2023-03-04T01:29:20;20.45;;;12.40;;
75537;SDS011;64121;48.666;8.114;2023-03-04T01:31:47;22.13;;;12.00;;
75537;SDS011;64121;48.666;8.114;2023-03-04T01:34:12;23.95;;;11.95;;
75537;SDS011;64121;48.666;8.114;2023-03-04T01:36:38;27.33;;;12.80;;
75537;SDS011;64121;48.666;8.114;2023-03-04T01:39:03;22.98;;;12.77;;
75537;SDS011;64121;48.666;8.114;2023-03-04T01:41:29;22.08;;;11.85;;
75537;SDS011;64121;48.666;8.114;2023-03-04T01:43:54;22.65;;;12.10;;
75537;SDS011;64121;48.666;8.114;2023-03-04T01:46:20;24.13;;;11.75;;
75537;SDS011;64121;48.666;8.114;2023-03-04T01:48:47;19.65;;;11.65;;
75537;SDS011;64121;48.666;8.114;2023-03-04T01:51:13;21.27;;;12.57;;
75537;SDS011;64121;48.666;8.114;2023-03-04T01:53:41;23.52;;;14.20;;
75537;SDS011;64121;48.666;8.114;2023-03-04T01:56:10;20.75;;;11.85;;
75537;SDS011;64121;48.666;8.114;2023-03-04T01:58:38;26.63;;;13.13;;
75537;SDS011;64121;48.666;8.114;2023-03-04T02:01:04;24.42;;;13.63;;
75537;SDS011;64121;48.666;8.114;2023-03-04T02:03:29;21.63;;;13.10;;
75537;SDS011;64121;48.666;8.114;2023-03-04T02:05:56;25.23;;;12.25;;
75537;SDS011;64121;48.666;8.114;2023-03-04T02:08:22;27.13;;;12.95;;
75537;SDS011;64121;48.666;8.114;2023-03-04T02:10:48;21.48;;;11.27;;
75537;SDS011;64121;48.666;8.114;2023-03-04T02:13:15;20.80;;;12.52;;
75537;SDS011;64121;48.666;8.114;2023-03-04T02:15:41;21.17;;;11.65;;
75537;SDS011;64121;48.666;8.114;2023-03-04T02:18:11;20.65;;;12.60;;
75537;SDS011;64121;48.666;8.114;2023-03-04T02:20:40;17.23;;;11.25;;
75537;SDS011;64121;48.666;8.114;2023-03-04T02:23:15;20.90;;;11.23;;
75537;SDS011;64121;48.666;8.114;2023-03-04T02:25:49;19.67;;;11.90;;
75537;SDS011;64121;48.666;8.114;2023-03-04T02:28:20;20.70;;;11.30;;
75537;SDS011;64121;48.666;8.114;2023-03-04T02:30:46;20.85;;;12.60;;
75537;SDS011;64121;48.666;8.114;2023-03-04T02:33:15;20.48;;;12.60;;
75537;SDS011;64121;48.666;8.114;2023-03-04T02:35:42;20.67;;;11.93;;
75537;SDS011;64121;48.666;8.114;2023-03-04T02:38:08;19.23;;;11.55;;
75537;SDS011;64121;48.666;8.114;2023-03-04T02:40:34;24.50;;;13.05;;
75537;SDS011;64121;48.666;8.114;2023-03-04T02:42:59;18.92;;;11.43;;
75537;SDS011;64121;48.666;8.114;2023-03-04T02:45:35;23.58;;;12.82;;
75537;SDS011;64121;48.666;8.114;2023-03-04T02:48:04;21.55;;;12.82;;
75537;SDS011;64121;48.666;8.114;2023-03-04T02:50:32;24.58;;;13.25;;
75537;SDS011;64121;48.666;8.114;2023-03-04T02:52:59;23.98;;;12.27;;
75537;SDS011;64121;48.666;8.114;2023-03-04T02:55:24;22.92;;;12.30;;
75537;SDS011;64121;48.666;8.114;2023-03-04T02:57:50;22.70;;;12.18;;
75537;SDS011;64121;48.666;8.114;2023-03-04T03:00:15;21.17;;;11.73;;
75537;SDS011;64121;48.666;8.114;2023-03-04T03:02:42;24.73;;;12.38;;
75537;SDS011;64121;48.666;8.114;2023-03-04T03:05:07;20.88;;;12.25;;
75537;SDS011;64121;48.666;8.114;2023-03-04T03:07:33;23.92;;;13.88;;
75537;SDS011;64121;48.666;8.114;2023-03-04T03:09:58;23.27;;;12.23;;
75537;SDS011;64121;48.666;8.114;2023-03-04T03:12:23;23.15;;;12.48;;
75537;SDS011;64121;48.666;8.114;2023-03-04T03:14:49;23.73;;;12.40;;
75537;SDS011;64121;48.666;8.114;2023-03-04T03:17:14;24.83;;;13.70;;
75537;SDS011;64121;48.666;8.114;2023-03-04T03:19:40;24.38;;;12.57;;
75537;SDS011;64121;48.666;8.114;2023-03-04T03:22:06;21.38;;;12.05;;
75537;SDS011;64121;48.666;8.114;2023-03-04T03:24:31;20.70;;;12.35;;
75537;SDS011;64121;48.666;8.114;2023-03-04T03:26:56;18.20;;;11.82;;
75537;SDS011;64121;48.666;8.114;2023-03-04T03:29:22;20.13;;;11.18;;
75537;SDS011;64121;48.666;8.114;2023-03-04T03:31:47;24.17;;;11.98;;
75537;SDS011;64121;48.666;8.114;2023-03-04T03:34:12;23.60;;;11.88;;
75537;SDS011;64121;48.666;8.114;2023-03-04T03:36:39;22.25;;;12.18;;
75537;SDS011;64121;48.666;8.114;2023-03-04T03:39:04;21.85;;;12.55;;
75537;SDS011;64121;48.666;8.114;2023-03-04T03:41:30;20.73;;;11.60;;
75537;SDS011;64121;48.666;8.114;2023-03-04T03:43:55;19.23;;;11.48;;
75537;SDS011;64121;48.666;8.114;2023-03-04T03:46:20;22.23;;;11.68;;
75537;SDS011;64121;48.666;8.114;2023-03-04T03:48:46;21.75;;;12.02;;
75537;SDS011;64121;48.666;8.114;2023-03-04T03:51:11;22.60;;;12.35;;
75537;SDS011;64121;48.666;8.114;2023-03-04T03:53:38;24.80;;;12.50;;
75537;SDS011;64121;48.666;8.114;2023-03-04T03:56:03;22.00;;;11.80;;
75537;SDS011;64121;48.666;8.114;2023-03-04T03:58:29;20.63;;;11.75;;
75537;SDS011;64121;48.666;8.114;2023-03-04T04:00:55;21.23;;;11.52;;
75537;SDS011;64121;48.666;8.114;2023-03-04T04:03:20;22.42;;;12.45;;
75537;SDS011;64121;48.666;8.114;2023-03-04T04:05:45;21.88;;;12.05;;
75537;SDS011;64121;48.666;8.114;2023-03-04T04:08:11;21.20;;;12.57;;
75537;SDS011;64121;48.666;8.114;2023-03-04T04:10:38;24.15;;;13.55;;
75537;SDS011;64121;48.666;8.114;2023-03-04T04:13:03;22.95;;;11.93;;
75537;SDS011;64121;48.666;8.114;2023-03-04T04:15:29;23.38;;;11.60;;
75537;SDS011;64121;48.666;8.114;2023-03-04T04:17:54;18.05;;;11.70;;
75537;SDS011;64121;48.666;8.114;2023-03-04T04:20:20;22.00;;;11.15;;
75537;SDS011;64121;48.666;8.114;2023-03-04T04:22:45;20.83;;;11.90;;
75537;SDS011;64121;48.666;8.114;2023-03-04T04:25:10;21.67;;;11.57;;
75537;SDS011;64121;48.666;8.114;2023-03-04T04:27:37;22.45;;;11.77;;
75537;SDS011;64121;48.666;8.114;2023-03-04T04:30:02;20.30;;;10.73;;
75537;SDS011;64121;48.666;8.114;2023-03-04T04:32:28;19.65;;;11.35;;
75537;SDS011;64121;48.666;8.114;2023-03-04T04:34:53;22.98;;;11.65;;
75537;SDS011;64121;48.666;8.114;2023-03-04T04:37:19;20.30;;;12.02;;
75537;SDS011;64121;48.666;8.114;2023-03-04T04:39:44;18.60;;;11.10;;
75537;SDS011;64121;48.666;8.114;2023-03-04T04:42:09;23.42;;;12.68;;
75537;SDS011;64121;48.666;8.114;2023-03-04T04:44:37;22.27;;;12.45;;
75537;SDS011;64121;48.666;8.114;2023-03-04T04:47:02;20.75;;;11.43;;
75537;SDS011;64121;48.666;8.114;2023-03-04T04:49:28;22.25;;;12.43;;
75537;SDS011;64121;48.666;8.114;2023-03-04T04:51:53;20.98;;;11.80;;
75537;SDS011;64121;48.666;8.114;2023-03-04T04:54:18;19.92;;;11.55;;
75537;SDS011;64121;48.666;8.114;2023-03-04T04:56:44;21.35;;;11.85;;
75537;SDS011;64121;48.666;8.114;2023-03-04T04:59:09;24.15;;;12.75;;
75537;SDS011;64121;48.666;8.114;2023-03-04T05:01:36;23.55;;;11.27;;
75537;SDS011;64121;48.666;8.114;2023-03-04T05:04:01;21.42;;;11.70;;
75537;SDS011;64121;48.666;8.114;2023-03-04T05:06:26;21.77;;;11.50;;
75537;SDS011;64121;48.666;8.114;2023-03-04T05:08:52;23.17;;;12.45;;
75537;SDS011;64121;48.666;8.114;2023-03-04T05:11:17;26.70;;;13.35;;
75537;SDS011;64121;48.666;8.114;2023-03-04T05:13:44;24.33;;;12.75;;
75537;SDS011;64121;48.666;8.114;2023-03-04T05:16:09;22.05;;;13.05;;
75537;SDS011;64121;48.666;8.114;2023-03-04T05:18:36;23.33;;;13.48;;
75537;SDS011;64121;48.666;8.114;2023-03-04T05:21:02;19.30;;;11.70;;
75537;SDS011;64121;48.666;8.114;2023-03-04T05:23:29;21.33;;;11.48;;
75537;SDS011;64121;48.666;8.114;2023-03-04T05:25:56;21.13;;;11.98;;
75537;SDS011;64121;48.666;8.114;2023-03-04T05:28:21;21.17;;;12.02;;
75537;SDS011;64121;48.666;8.114;2023-03-04T05:30:47;24.02;;;12.75;;
75537;SDS011;64121;48.666;8.114;2023-03-04T05:33:14;24.40;;;12.13;;
75537;SDS011;64121;48.666;8.114;2023-03-04T05:35:42;23.30;;;13.25;;
75537;SDS011;64121;48.666;8.114;2023-03-04T05:38:09;20.48;;;12.95;;
75537;SDS011;64121;48.666;8.114;2023-03-04T05:40:36;19.35;;;11.02;;
75537;SDS011;64121;48.666;8.114;2023-03-04T05:43:02;28.63;;;13.30;;
75537;SDS011;64121;48.666;8.114;2023-03-04T05:45:28;28.17;;;13.98;;
75537;SDS011;64121;48.666;8.114;2023-03-04T05:47:53;28.75;;;14.13;;
75537;SDS011;64121;48.666;8.114;2023-03-04T05:50:19;19.50;;;11.98;;
75537;SDS011;64121;48.666;8.114;2023-03-04T05:52:48;26.90;;;13.15;;
75537;SDS011;64121;48.666;8.114;2023-03-04T05:55:13;21.83;;;11.45;;
75537;SDS011;64121;48.666;8.114;2023-03-04T05:57:39;21.42;;;11.90;;
75537;SDS011;64121;48.666;8.114;2023-03-04T06:00:05;18.88;;;12.05;;
75537;SDS011;64121;48.666;8.114;2023-03-04T06:02:32;22.80;;;12.40;;
75537;SDS011;64121;48.666;8.114;2023-03-04T06:04:57;22.98;;;11.68;;
75537;SDS011;64121;48.666;8.114;2023-03-04T06:07:22;24.77;;;13.13;;
75537;SDS011;64121;48.666;8.114;2023-03-04T06:09:49;26.40;;;12.30;;
75537;SDS011;64121;48.666;8.114;2023-03-04T06:12:14;22.90;;;12.02;;
75537;SDS011;64121;48.666;8.114;2023-03-04T06:14:40;21.58;;;11.93;;
75537;SDS011;64121;48.666;8.114;2023-03-04T06:17:05;22.13;;;12.02;;
75537;SDS011;64121;48.666;8.114;2023-03-04T06:19:30;23.90;;;12.48;;
75537;SDS011;64121;48.666;8.114;2023-03-04T06:21:56;24.65;;;12.43;;
75537;SDS011;64121;48.666;8.114;2023-03-04T06:24:21;22.65;;;11.85;;
75537;SDS011;64121;48.666;8.114;2023-03-04T06:26:48;24.48;;;12.40;;
75537;SDS011;64121;48.666;8.114;2023-03-04T06:29:13;25.90;;;14.40;;
75537;SDS011;64121;48.666;8.114;2023-03-04T06:31:38;26.10;;;14.20;;
75537;SDS011;64121;48.666;8.114;2023-03-04T06:34:04;26.27;;;13.98;;
75537;SDS011;64121;48.666;8.114;2023-03-04T06:36:29;24.08;;;12.82;;
75537;SDS011;64121;48.666;8.114;2023-03-04T06:38:54;25.27;;;12.70;;
75537;SDS011;64121;48.666;8.114;2023-03-04T06:41:20;25.20;;;12.85;;
75537;SDS011;64121;48.666;8.114;2023-03-04T06:43:46;20.92;;;12.60;;
75537;SDS011;64121;48.666;8.114;2023-03-04T06:46:12;26.48;;;14.50;;
75537;SDS011;64121;48.666;8.114;2023-03-04T06:48:37;22.83;;;13.73;;
75537;SDS011;64121;48.666;8.114;2023-03-04T06:51:06;25.48;;;13.80;;
75537;SDS011;64121;48.666;8.114;2023-03-04T06:53:32;23.10;;;13.85;;
75537;SDS011;64121;48.666;8.114;2023-03-04T06:55:57;24.15;;;14.65;;
75537;SDS011;64121;48.666;8.114;2023-03-04T06:58:22;26.33;;;13.60;;
75537;SDS011;64121;48.666;8.114;2023-03-04T07:00:49;26.88;;;14.82;;
75537;SDS011;64121;48.666;8.114;2023-03-04T07:03:14;27.77;;;13.85;;
75537;SDS011;64121;48.666;8.114;2023-03-04T07:05:41;24.98;;;14.15;;
75537;SDS011;64121;48.666;8.114;2023-03-04T07:08:06;30.73;;;15.50;;
75537;SDS011;64121;48.666;8.114;2023-03-04T07:10:31;28.70;;;16.10;;
75537;SDS011;64121;48.666;8.114;2023-03-04T07:12:57;27.17;;;14.82;;
75537;SDS011;64121;48.666;8.114;2023-03-04T07:15:22;23.83;;;14.15;;
75537;SDS011;64121;48.666;8.114;2023-03-04T07:17:49;31.02;;;18.02;;
75537;SDS011;64121;48.666;8.114;2023-03-04T07:20:14;30.63;;;16.02;;
75537;SDS011;64121;48.666;8.114;2023-03-04T07:22:40;30.70;;;17.65;;
75537;SDS011;64121;48.666;8.114;2023-03-04T07:25:05;30.65;;;17.00;;
75537;SDS011;64121;48.666;8.114;2023-03-04T07:27:31;26.45;;;14.70;;
75537;SDS011;64121;48.666;8.114;2023-03-04T07:29:57;30.50;;;15.93;;
75537;SDS011;64121;48.666;8.114;2023-03-04T07:32:22;27.70;;;16.00;;
75537;SDS011;64121;48.666;8.114;2023-03-04T07:34:49;27.80;;;16.23;;
75537;SDS011;64121;48.666;8.114;2023-03-04T07:37:15;25.70;;;14.95;;
75537;SDS011;64121;48.666;8.114;2023-03-04T07:39:40;30.52;;;16.33;;
75537;SDS011;64121;48.666;8.114;2023-03-04T07:42:05;31.52;;;16.33;;
75537;SDS011;64121;48.666;8.114;2023-03-04T07:44:31;29.85;;;16.20;;
75537;SDS011;64121;48.666;8.114;2023-03-04T07:46:56;34.63;;;18.95;;
75537;SDS011;64121;48.666;8.114;2023-03-04T07:49:22;29.75;;;16.38;;
75537;SDS011;64121;48.666;8.114;2023-03-04T07:51:48;31.55;;;18.02;;
75537;SDS011;64121;48.666;8.114;2023-03-04T07:54:14;30.75;;;18.55;;
75537;SDS011;64121;48.666;8.114;2023-03-04T07:56:39;33.40;;;17.73;;
75537;SDS011;64121;48.666;8.114;2023-03-04T07:59:04;31.52;;;18.30;;
75537;SDS011;64121;48.666;8.114;2023-03-04T08:01:30;33.58;;;18.08;;
75537;SDS011;64121;48.666;8.114;2023-03-04T08:03:57;28.92;;;16.70;;
75537;SDS011;64121;48.666;8.114;2023-03-04T08:06:23;29.17;;;16.63;;
75537;SDS011;64121;48.666;8.114;2023-03-04T08:08:54;32.22;;;17.88;;
75537;SDS011;64121;48.666;8.114;2023-03-04T08:11:20;27.40;;;16.70;;
75537;SDS011;64121;48.666;8.114;2023-03-04T08:13:46;29.75;;;17.92;;
75537;SDS011;64121;48.666;8.114;2023-03-04T08:16:12;33.88;;;17.50;;
75537;SDS011;64121;48.666;8.114;2023-03-04T08:18:38;32.75;;;17.75;;
75537;SDS011;64121;48.666;8.114;2023-03-04T08:21:06;43.58;;;22.95;;
75537;SDS011;64121;48.666;8.114;2023-03-04T08:23:32;36.67;;;19.73;;
75537;SDS011;64121;48.666;8.114;2023-03-04T08:25:59;43.15;;;19.35;;
75537;SDS011;64121;48.666;8.114;2023-03-04T08:28:30;49.50;;;26.27;;
75537;SDS011;64121;48.666;8.114;2023-03-04T08:30:55;35.45;;;18.65;;
75537;SDS011;64121;48.666;8.114;2023-03-04T08:33:20;33.05;;;17.55;;
75537;SDS011;64121;48.666;8.114;2023-03-04T08:35:46;31.75;;;17.30;;
75537;SDS011;64121;48.666;8.114;2023-03-04T08:38:11;27.45;;;15.80;;
75537;SDS011;64121;48.666;8.114;2023-03-04T08:40:37;30.67;;;16.15;;
75537;SDS011;64121;48.666;8.114;2023-03-04T08:43:03;28.95;;;17.75;;
75537;SDS011;64121;48.666;8.114;2023-03-04T08:45:29;27.02;;;15.45;;
75537;SDS011;64121;48.666;8.114;2023-03-04T08:47:54;29.58;;;15.25;;
75537;SDS011;64121;48.666;8.114;2023-03-04T08:50:19;30.50;;;14.45;;
75537;SDS011;64121;48.666;8.114;2023-03-04T08:52:45;22.90;;;13.70;;
75537;SDS011;64121;48.666;8.114;2023-03-04T08:55:10;24.20;;;13.65;;
75537;SDS011;64121;48.666;8.114;2023-03-04T08:57:35;25.90;;;14.45;;
75537;SDS011;64121;48.666;8.114;2023-03-04T09:00:02;22.75;;;14.13;;
75537;SDS011;64121;48.666;8.114;2023-03-04T09:02:28;27.35;;;14.30;;
75537;SDS011;64121;48.666;8.114;2023-03-04T09:04:53;25.42;;;13.85;;
75537;SDS011;64121;48.666;8.114;2023-03-04T09:07:19;28.40;;;14.68;;
75537;SDS011;64121;48.666;8.114;2023-03-04T09:09:44;26.70;;;13.88;;
75537;SDS011;64121;48.666;8.114;2023-03-04T09:12:09;24.25;;;14.68;;
75537;SDS011;64121;48.666;8.114;2023-03-04T09:14:35;26.83;;;13.70;;
75537;SDS011;64121;48.666;8.114;2023-03-04T09:17:01;21.85;;;12.77;;
75537;SDS011;64121;48.666;8.114;2023-03-04T09:19:27;25.33;;;13.65;;
75537;SDS011;64121;48.666;8.114;2023-03-04T09:21:53;26.42;;;14.85;;
75537;SDS011;64121;48.666;8.114;2023-03-04T09:24:19;24.33;;;13.57;;
75537;SDS011;64121;48.666;8.114;2023-03-04T09:26:44;24.23;;;13.10;;
75537;SDS011;64121;48.666;8.114;2023-03-04T09:29:09;24.48;;;13.75;;
75537;SDS011;64121;48.666;8.114;2023-03-04T09:31:35;22.13;;;12.77;;
75537;SDS011;64121;48.666;8.114;2023-03-04T09:34:01;25.02;;;13.77;;
75537;SDS011;64121;48.666;8.114;2023-03-04T09:36:27;23.98;;;13.93;;
75537;SDS011;64121;48.666;8.114;2023-03-04T09:38:52;25.38;;;14.68;;
75537;SDS011;64121;48.666;8.114;2023-03-04T09:41:19;23.45;;;13.25;;
75537;SDS011;64121;48.666;8.114;2023-03-04T09:43:48;25.75;;;13.40;;
75537;SDS011;64121;48.666;8.114;2023-03-04T09:46:17;22.42;;;12.95;;
75537;SDS011;64121;48.666;8.114;2023-03-04T09:48:49;25.37;;;14.87;;
75537;SDS011;64121;48.666;8.114;2023-03-04T09:51:21;23.05;;;14.07;;
75537;SDS011;64121;48.666;8.114;2023-03-04T09:53:57;29.85;;;15.73;;
75537;SDS011;64121;48.666;8.114;2023-03-04T09:56:30;22.67;;;14.55;;
75537;SDS011;64121;48.666;8.114;2023-03-04T09:59:00;30.50;;;14.95;;
75537;SDS011;64121;48.666;8.114;2023-03-04T10:01:34;29.20;;;15.25;;
75537;SDS011;64121;48.666;8.114;2023-03-04T10:04:05;33.78;;;17.73;;
75537;SDS011;64121;48.666;8.114;2023-03-04T10:06:38;28.05;;;16.27;;
75537;SDS011;64121;48.666;8.114;2023-03-04T10:09:06;34.63;;;18.60;;
75537;SDS011;64121;48.666;8.114;2023-03-04T10:11:37;31.00;;;16.83;;
75537;SDS011;64121;48.666;8.114;2023-03-04T10:14:14;33.85;;;17.58;;
75537;SDS011;64121;48.666;8.114;2023-03-04T10:16:51;32.45;;;16.83;;
75537;SDS011;64121;48.666;8.114;2023-03-04T10:19:22;27.35;;;15.52;;
75537;SDS011;64121;48.666;8.114;2023-03-04T10:21:54;34.85;;;16.90;;
75537;SDS011;64121;48.666;8.114;2023-03-04T10:24:20;36.88;;;18.35;;
75537;SDS011;64121;48.666;8.114;2023-03-04T10:26:48;29.80;;;15.70;;
75537;SDS011;64121;48.666;8.114;2023-03-04T10:29:18;40.08;;;19.65;;
75537;SDS011;64121;48.666;8.114;2023-03-04T10:31:45;35.47;;;19.70;;
75537;SDS011;64121;48.666;8.114;2023-03-04T10:34:12;33.97;;;19.13;;
75537;SDS011;64121;48.666;8.114;2023-03-04T10:36:43;38.00;;;18.23;;
75537;SDS011;64121;48.666;8.114;2023-03-04T10:39:20;42.53;;;19.52;;
75537;SDS011;64121;48.666;8.114;2023-03-04T10:41:55;32.10;;;17.67;;
75537;SDS011;64121;48.666;8.114;2023-03-04T10:44:23;38.53;;;18.63;;
75537;SDS011;64121;48.666;8.114;2023-03-04T10:46:48;36.75;;;18.30;;
75537;SDS011;64121;48.666;8.114;2023-03-04T10:49:17;33.92;;;18.45;;
75537;SDS011;64121;48.666;8.114;2023-03-04T10:51:44;33.13;;;17.13;;
75537;SDS011;64121;48.666;8.114;2023-03-04T10:54:16;37.22;;;18.73;;
75537;SDS011;64121;48.666;8.114;2023-03-04T10:56:55;33.63;;;18.73;;
75537;SDS011;64121;48.666;8.114;2023-03-04T11:04:58;37.22;;;17.80;;
75537;SDS011;64121;48.666;8.114;2023-03-04T11:07:35;36.35;;;19.83;;
75537;SDS011;64121;48.666;8.114;2023-03-04T11:10:08;39.45;;;20.85;;
75537;SDS011;64121;48.666;8.114;2023-03-04T11:12:38;33.78;;;18.92;;
75537;SDS011;64121;48.666;8.114;2023-03-04T11:15:14;37.47;;;20.35;;
75537;SDS011;64121;48.666;8.114;2023-03-04T11:17:42;42.25;;;20.48;;
75537;SDS011;64121;48.666;8.114;2023-03-04T11:20:12;34.58;;;18.42;;
75537;SDS011;64121;48.666;8.114;2023-03-04T11:22:41;32.25;;;17.58;;
75537;SDS011;64121;48.666;8.114;2023-03-04T11:25:15;37.28;;;18.92;;
75537;SDS011;64121;48.666;8.114;2023-03-04T11:27:46;35.10;;;18.83;;
75537;SDS011;64121;48.666;8.114;2023-03-04T11:30:20;32.83;;;17.38;;
75537;SDS011;64121;48.666;8.114;2023-03-04T11:32:54;33.65;;;16.08;;
75537;SDS011;64121;48.666;8.114;2023-03-04T11:35:26;36.80;;;18.20;;
75537;SDS011;64121;48.666;8.114;2023-03-04T11:37:57;33.33;;;16.63;;
75537;SDS011;64121;48.666;8.114;2023-03-04T11:40:32;31.67;;;18.42;;
75537;SDS011;64121;48.666;8.114;2023-03-04T11:43:03;33.92;;;17.27;;
75537;SDS011;64121;48.666;8.114;2023-03-04T11:45:40;30.05;;;18.08;;
75537;SDS011;64121;48.666;8.114;2023-03-04T11:48:27;32.80;;;15.45;;
75537;SDS011;64121;48.666;8.114;2023-03-04T11:51:03;34.95;;;18.05;;
75537;SDS011;64121;48.666;8.114;2023-03-04T11:53:36;27.85;;;18.15;;
75537;SDS011;64121;48.666;8.114;2023-03-04T11:56:19;34.58;;;17.80;;
75537;SDS011;64121;48.666;8.114;2023-03-04T11:59:03;33.17;;;17.98;;
75537;SDS011;64121;48.666;8.114;2023-03-04T12:01:47;29.17;;;15.98;;
75537;SDS011;64121;48.666;8.114;2023-03-04T12:04:23;30.23;;;16.30;;
75537;SDS011;64121;48.666;8.114;2023-03-04T12:07:19;34.05;;;17.73;;
75537;SDS011;64121;48.666;8.114;2023-03-04T12:10:02;33.35;;;18.00;;
75537;SDS011;64121;48.666;8.114;2023-03-04T12:12:50;29.38;;;16.58;;
75537;SDS011;64121;48.666;8.114;2023-03-04T12:15:27;34.22;;;17.38;;
75537;SDS011;64121;48.666;8.114;2023-03-04T12:18:10;32.17;;;17.05;;
75537;SDS011;64121;48.666;8.114;2023-03-04T12:20:45;31.70;;;16.42;;
75537;SDS011;64121;48.666;8.114;2023-03-04T12:23:25;30.08;;;17.00;;
75537;SDS011;64121;48.666;8.114;2023-03-04T12:26:06;30.40;;;14.20;;
75537;SDS011;64121;48.666;8.114;2023-03-04T12:28:44;36.35;;;17.30;;
75537;SDS011;64121;48.666;8.114;2023-03-04T12:36:59;32.60;;;15.82;;
75537;SDS011;64121;48.666;8.114;2023-03-04T12:39:38;31.38;;;17.30;;
75537;SDS011;64121;48.666;8.114;2023-03-04T12:42:08;33.55;;;17.38;;
75537;SDS011;64121;48.666;8.114;2023-03-04T12:44:51;33.25;;;17.05;;
75537;SDS011;64121;48.666;8.114;2023-03-04T12:47:26;32.60;;;16.40;;
75537;SDS011;64121;48.666;8.114;2023-03-04T12:50:03;36.40;;;17.50;;
75537;SDS011;64121;48.666;8.114;2023-03-04T12:52:51;31.23;;;16.13;;
75537;SDS011;64121;48.666;8.114;2023-03-04T12:55:25;29.25;;;15.90;;
75537;SDS011;64121;48.666;8.114;2023-03-04T12:57:59;33.28;;;16.92;;
75537;SDS011;64121;48.666;8.114;2023-03-04T13:00:27;27.45;;;15.25;;
75537;SDS011;64121;48.666;8.114;2023-03-04T13:03:05;32.22;;;18.10;;
75537;SDS011;64121;48.666;8.114;2023-03-04T13:05:39;33.08;;;15.57;;
75537;SDS011;64121;48.666;8.114;2023-03-04T13:08:14;33.40;;;17.15;;
75537;SDS011;64121;48.666;8.114;2023-03-04T13:10:49;38.53;;;19.15;;
75537;SDS011;64121;48.666;8.114;2023-03-04T13:16:03;31.05;;;17.38;;
75537;SDS011;64121;48.666;8.114;2023-03-04T13:18:31;33.45;;;16.10;;
75537;SDS011;64121;48.666;8.114;2023-03-04T13:23:46;29.85;;;16.38;;
75537;SDS011;64121;48.666;8.114;2023-03-04T13:26:27;32.13;;;17.00;;
75537;SDS011;64121;48.666;8.114;2023-03-04T13:32:00;30.30;;;17.20;;
75537;SDS011;64121;48.666;8.114;2023-03-04T13:34:41;29.93;;;15.87;;
75537;SDS011;64121;48.666;8.114;2023-03-04T13:37:20;32.25;;;16.35;;
75537;SDS011;64121;48.666;8.114;2023-03-04T13:40:01;31.75;;;16.88;;
75537;SDS011;64121;48.666;8.114;2023-03-04T13:42:48;35.83;;;15.88;;
75537;SDS011;64121;48.666;8.114;2023-03-04T13:45:31;31.75;;;15.60;;
75537;SDS011;64121;48.666;8.114;2023-03-04T13:48:00;33.90;;;16.65;;
75537;SDS011;64121;48.666;8.114;2023-03-04T13:50:39;33.92;;;16.23;;
75537;SDS011;64121;48.666;8.114;2023-03-04T13:53:17;34.28;;;15.65;;
75537;SDS011;64121;48.666;8.114;2023-03-04T13:55:58;34.17;;;16.48;;
75537;SDS011;64121;48.666;8.114;2023-03-04T14:00:54;33.20;;;15.03;;
75537;SDS011;64121;48.666;8.114;2023-03-04T14:03:22;32.60;;;16.20;;
75537;SDS011;64121;48.666;8.114;2023-03-04T14:08:39;31.38;;;15.05;;
75537;SDS011;64121;48.666;8.114;2023-03-04T14:11:04;28.75;;;15.15;;
75537;SDS011;64121;48.666;8.114;2023-03-04T14:13:34;33.28;;;17.17;;
75537;SDS011;64121;48.666;8.114;2023-03-04T14:16:01;33.72;;;16.35;;
75537;SDS011;64121;48.666;8.114;2023-03-04T14:18:28;29.40;;;15.27;;
75537;SDS011;64121;48.666;8.114;2023-03-04T14:20:53;29.13;;;14.60;;
75537;SDS011;64121;48.666;8.114;2023-03-04T14:23:24;29.50;;;15.45;;
75537;SDS011;64121;48.666;8.114;2023-03-04T14:25:51;35.55;;;16.42;;
75537;SDS011;64121;48.666;8.114;2023-03-04T14:28:17;35.40;;;15.40;;
75537;SDS011;64121;48.666;8.114;2023-03-04T14:30:49;35.28;;;16.05;;
75537;SDS011;64121;48.666;8.114;2023-03-04T14:33:16;30.70;;;14.43;;
75537;SDS011;64121;48.666;8.114;2023-03-04T14:35:46;32.67;;;15.15;;
75537;SDS011;64121;48.666;8.114;2023-03-04T14:38:15;30.45;;;14.65;;
75537;SDS011;64121;48.666;8.114;2023-03-04T14:40:47;26.83;;;13.98;;
75537;SDS011;64121;48.666;8.114;2023-03-04T14:43:17;32.38;;;15.73;;
75537;SDS011;64121;48.666;8.114;2023-03-04T14:45:44;32.95;;;16.60;;
75537;SDS011;64121;48.666;8.114;2023-03-04T14:48:15;28.73;;;14.65;;
75537;SDS011;64121;48.666;8.114;2023-03-04T14:50:49;30.42;;;14.30;;
75537;SDS011;64121;48.666;8.114;2023-03-04T14:53:16;29.52;;;14.05;;